sensor_id;sensor_type;location;lat;lon;timestamp;temperature;humidity
46139;DHT22;32398;49.112;8.598;2022-08-11T00:00:18;24.70;38.70
46139;DHT22;32398;49.112;8.598;2022-08-11T00:02:45;24.70;38.80
46139;DHT22;32398;49.112;8.598;2022-08-11T00:05:14;24.60;38.80
46139;DHT22;32398;49.112;8.598;2022-08-11T00:07:43;24.60;39.00
46139;DHT22;32398;49.112;8.598;2022-08-11T00:10:11;24.60;39.10
46139;DHT22;32398;49.112;8.598;2022-08-11T00:12:39;24.50;39.20
46139;DHT22;32398;49.112;8.598;2022-08-11T00:15:07;24.50;39.30
46139;DHT22;32398;49.112;8.598;2022-08-11T00:17:34;24.40;39.40
46139;DHT22;32398;49.112;8.598;2022-08-11T00:20:03;24.40;39.50
46139;DHT22;32398;49.112;8.598;2022-08-11T00:22:30;24.40;39.70
46139;DHT22;32398;49.112;8.598;2022-08-11T00:24:57;24.30;39.80
46139;DHT22;32398;49.112;8.598;2022-08-11T00:27:32;24.20;40.00
46139;DHT22;32398;49.112;8.598;2022-08-11T00:30:00;24.20;40.30
46139;DHT22;32398;49.112;8.598;2022-08-11T00:32:27;24.20;40.20
46139;DHT22;32398;49.112;8.598;2022-08-11T00:34:54;24.20;40.30
46139;DHT22;32398;49.112;8.598;2022-08-11T00:37:21;24.10;40.30
46139;DHT22;32398;49.112;8.598;2022-08-11T00:39:49;24.10;40.60
46139;DHT22;32398;49.112;8.598;2022-08-11T00:42:18;24.00;40.80
46139;DHT22;32398;49.112;8.598;2022-08-11T00:44:54;24.00;41.00
46139;DHT22;32398;49.112;8.598;2022-08-11T00:47:42;23.90;40.80
46139;DHT22;32398;49.112;8.598;2022-08-11T00:50:12;23.80;41.10
46139;DHT22;32398;49.112;8.598;2022-08-11T00:52:49;23.80;41.20
46139;DHT22;32398;49.112;8.598;2022-08-11T01:00:50;23.70;42.00
46139;DHT22;32398;49.112;8.598;2022-08-11T01:03:26;23.70;42.00
46139;DHT22;32398;49.112;8.598;2022-08-11T01:08:54;23.60;42.00
46139;DHT22;32398;49.112;8.598;2022-08-11T01:11:44;23.50;42.00
46139;DHT22;32398;49.112;8.598;2022-08-11T01:14:24;23.50;42.20
46139;DHT22;32398;49.112;8.598;2022-08-11T01:17:02;23.40;42.40
46139;DHT22;32398;49.112;8.598;2022-08-11T01:19:43;23.40;43.00
46139;DHT22;32398;49.112;8.598;2022-08-11T01:22:22;23.40;42.50
46139;DHT22;32398;49.112;8.598;2022-08-11T01:25:02;23.30;42.50
46139;DHT22;32398;49.112;8.598;2022-08-11T01:27:49;23.30;42.60
46139;DHT22;32398;49.112;8.598;2022-08-11T01:39:09;23.10;43.00
46139;DHT22;32398;49.112;8.598;2022-08-11T01:41:46;23.10;42.90
46139;DHT22;32398;49.112;8.598;2022-08-11T01:44:44;23.00;42.90
46139;DHT22;32398;49.112;8.598;2022-08-11T01:47:22;23.00;43.20
46139;DHT22;32398;49.112;8.598;2022-08-11T01:50:13;22.90;43.20
46139;DHT22;32398;49.112;8.598;2022-08-11T01:52:43;22.90;43.50
46139;DHT22;32398;49.112;8.598;2022-08-11T01:55:16;22.90;43.60
46139;DHT22;32398;49.112;8.598;2022-08-11T01:57:49;22.90;43.60
46139;DHT22;32398;49.112;8.598;2022-08-11T02:00:17;22.80;43.50
46139;DHT22;32398;49.112;8.598;2022-08-11T02:02:45;22.80;43.50
46139;DHT22;32398;49.112;8.598;2022-08-11T02:05:26;22.70;43.80
46139;DHT22;32398;49.112;8.598;2022-08-11T02:07:57;22.70;43.70
46139;DHT22;32398;49.112;8.598;2022-08-11T02:10:29;22.70;43.70
46139;DHT22;32398;49.112;8.598;2022-08-11T02:13:16;22.60;43.80
46139;DHT22;32398;49.112;8.598;2022-08-11T02:15:45;22.60;44.00
46139;DHT22;32398;49.112;8.598;2022-08-11T02:18:15;22.50;43.80
46139;DHT22;32398;49.112;8.598;2022-08-11T02:20:47;22.50;43.90
46139;DHT22;32398;49.112;8.598;2022-08-11T02:23:38;22.50;44.10
46139;DHT22;32398;49.112;8.598;2022-08-11T02:26:13;22.50;44.20
46139;DHT22;32398;49.112;8.598;2022-08-11T02:28:43;22.40;44.00
46139;DHT22;32398;49.112;8.598;2022-08-11T02:31:16;22.40;44.80
46139;DHT22;32398;49.112;8.598;2022-08-11T02:34:05;22.30;44.20
46139;DHT22;32398;49.112;8.598;2022-08-11T02:36:37;22.30;44.00
46139;DHT22;32398;49.112;8.598;2022-08-11T02:39:07;22.30;44.10
46139;DHT22;32398;49.112;8.598;2022-08-11T02:41:38;22.30;44.20
46139;DHT22;32398;49.112;8.598;2022-08-11T02:44:28;22.20;44.30
46139;DHT22;32398;49.112;8.598;2022-08-11T02:47:06;22.20;44.50
46139;DHT22;32398;49.112;8.598;2022-08-11T02:49:37;22.20;44.60
46139;DHT22;32398;49.112;8.598;2022-08-11T02:52:24;22.20;44.60
46139;DHT22;32398;49.112;8.598;2022-08-11T02:54:59;22.10;44.60
46139;DHT22;32398;49.112;8.598;2022-08-11T02:57:29;22.10;44.70
46139;DHT22;32398;49.112;8.598;2022-08-11T02:59:59;22.10;44.80
46139;DHT22;32398;49.112;8.598;2022-08-11T03:02:34;22.00;44.80
46139;DHT22;32398;49.112;8.598;2022-08-11T03:05:06;22.00;44.80
46139;DHT22;32398;49.112;8.598;2022-08-11T03:07:40;21.90;44.80
46139;DHT22;32398;49.112;8.598;2022-08-11T03:10:19;21.90;44.70
46139;DHT22;32398;49.112;8.598;2022-08-11T03:12:50;21.90;44.80
46139;DHT22;32398;49.112;8.598;2022-08-11T03:15:40;21.90;45.00
46139;DHT22;32398;49.112;8.598;2022-08-11T03:18:27;21.80;45.20
46139;DHT22;32398;49.112;8.598;2022-08-11T03:20:57;21.80;45.00
46139;DHT22;32398;49.112;8.598;2022-08-11T03:23:28;21.80;45.20
46139;DHT22;32398;49.112;8.598;2022-08-11T03:25:57;21.70;45.10
46139;DHT22;32398;49.112;8.598;2022-08-11T03:28:29;21.70;45.20
46139;DHT22;32398;49.112;8.598;2022-08-11T03:31:00;21.70;45.40
46139;DHT22;32398;49.112;8.598;2022-08-11T03:33:32;21.60;45.50
46139;DHT22;32398;49.112;8.598;2022-08-11T03:36:21;21.60;45.30
46139;DHT22;32398;49.112;8.598;2022-08-11T03:38:55;21.60;45.50
46139;DHT22;32398;49.112;8.598;2022-08-11T03:41:26;21.60;45.50
46139;DHT22;32398;49.112;8.598;2022-08-11T03:44:31;21.50;45.50
46139;DHT22;32398;49.112;8.598;2022-08-11T03:47:07;21.60;45.80
46139;DHT22;32398;49.112;8.598;2022-08-11T03:49:39;21.50;45.90
46139;DHT22;32398;49.112;8.598;2022-08-11T03:52:12;21.50;45.70
46139;DHT22;32398;49.112;8.598;2022-08-11T03:54:43;21.40;45.90
46139;DHT22;32398;49.112;8.598;2022-08-11T03:57:34;21.40;46.00
46139;DHT22;32398;49.112;8.598;2022-08-11T04:00:32;21.40;46.00
46139;DHT22;32398;49.112;8.598;2022-08-11T04:03:24;21.40;45.90
46139;DHT22;32398;49.112;8.598;2022-08-11T04:06:09;21.30;45.90
46139;DHT22;32398;49.112;8.598;2022-08-11T04:08:53;21.30;46.20
46139;DHT22;32398;49.112;8.598;2022-08-11T04:11:44;21.30;46.30
46139;DHT22;32398;49.112;8.598;2022-08-11T04:14:24;21.30;46.20
46139;DHT22;32398;49.112;8.598;2022-08-11T04:23:09;21.10;46.30
46139;DHT22;32398;49.112;8.598;2022-08-11T04:25:47;21.10;46.30
46139;DHT22;32398;49.112;8.598;2022-08-11T04:28:23;21.10;46.40
46139;DHT22;32398;49.112;8.598;2022-08-11T04:31:01;21.00;46.50
46139;DHT22;32398;49.112;8.598;2022-08-11T04:33:42;21.00;46.60
46139;DHT22;32398;49.112;8.598;2022-08-11T04:36:20;21.00;46.40
46139;DHT22;32398;49.112;8.598;2022-08-11T04:39:18;21.00;46.60
46139;DHT22;32398;49.112;8.598;2022-08-11T04:41:57;20.90;46.70
46139;DHT22;32398;49.112;8.598;2022-08-11T04:45:07;21.00;46.80
46139;DHT22;32398;49.112;8.598;2022-08-11T04:48:05;20.90;46.90
46139;DHT22;32398;49.112;8.598;2022-08-11T04:50:55;20.90;46.80
46139;DHT22;32398;49.112;8.598;2022-08-11T04:53:47;20.80;46.90
46139;DHT22;32398;49.112;8.598;2022-08-11T04:56:34;20.80;46.60
46139;DHT22;32398;49.112;8.598;2022-08-11T04:59:33;20.80;46.80
46139;DHT22;32398;49.112;8.598;2022-08-11T05:02:45;20.80;47.10
46139;DHT22;32398;49.112;8.598;2022-08-11T05:05:18;20.80;47.20
46139;DHT22;32398;49.112;8.598;2022-08-11T05:10:47;20.70;47.30
46139;DHT22;32398;49.112;8.598;2022-08-11T05:13:24;20.70;47.40
46139;DHT22;32398;49.112;8.598;2022-08-11T05:16:10;20.60;47.40
46139;DHT22;32398;49.112;8.598;2022-08-11T05:18:55;20.60;47.60
46139;DHT22;32398;49.112;8.598;2022-08-11T05:21:41;20.60;47.60
46139;DHT22;32398;49.112;8.598;2022-08-11T05:24:29;20.60;47.60
46139;DHT22;32398;49.112;8.598;2022-08-11T05:27:13;20.60;47.70
46139;DHT22;32398;49.112;8.598;2022-08-11T05:30:01;20.50;47.70
46139;DHT22;32398;49.112;8.598;2022-08-11T05:32:45;20.50;47.60
46139;DHT22;32398;49.112;8.598;2022-08-11T05:35:37;20.50;47.80
46139;DHT22;32398;49.112;8.598;2022-08-11T05:38:08;20.50;47.90
46139;DHT22;32398;49.112;8.598;2022-08-11T05:40:52;20.50;48.00
46139;DHT22;32398;49.112;8.598;2022-08-11T05:43:39;20.50;48.10
46139;DHT22;32398;49.112;8.598;2022-08-11T05:46:25;20.40;48.10
46139;DHT22;32398;49.112;8.598;2022-08-11T05:49:10;20.40;48.10
46139;DHT22;32398;49.112;8.598;2022-08-11T05:51:54;20.40;48.10
46139;DHT22;32398;49.112;8.598;2022-08-11T05:54:39;20.40;48.20
46139;DHT22;32398;49.112;8.598;2022-08-11T05:57:24;20.40;48.30
46139;DHT22;32398;49.112;8.598;2022-08-11T05:59:57;20.40;48.30
46139;DHT22;32398;49.112;8.598;2022-08-11T06:02:25;20.40;48.30
46139;DHT22;32398;49.112;8.598;2022-08-11T06:04:53;20.30;48.40
46139;DHT22;32398;49.112;8.598;2022-08-11T06:07:25;20.30;48.50
46139;DHT22;32398;49.112;8.598;2022-08-11T06:09:52;20.30;48.40
46139;DHT22;32398;49.112;8.598;2022-08-11T06:12:20;20.30;48.50
46139;DHT22;32398;49.112;8.598;2022-08-11T06:14:48;20.30;48.50
46139;DHT22;32398;49.112;8.598;2022-08-11T06:17:20;20.30;48.40
46139;DHT22;32398;49.112;8.598;2022-08-11T06:19:48;20.30;48.60
46139;DHT22;32398;49.112;8.598;2022-08-11T06:22:18;20.30;48.50
46139;DHT22;32398;49.112;8.598;2022-08-11T06:24:50;20.30;48.40
46139;DHT22;32398;49.112;8.598;2022-08-11T06:27:17;20.30;48.30
46139;DHT22;32398;49.112;8.598;2022-08-11T06:29:45;20.30;48.40
46139;DHT22;32398;49.112;8.598;2022-08-11T06:32:12;20.20;48.30
46139;DHT22;32398;49.112;8.598;2022-08-11T06:34:54;20.30;48.60
46139;DHT22;32398;49.112;8.598;2022-08-11T06:37:29;20.30;48.30
46139;DHT22;32398;49.112;8.598;2022-08-11T06:40:02;20.30;48.30
46139;DHT22;32398;49.112;8.598;2022-08-11T06:42:31;20.30;48.10
46139;DHT22;32398;49.112;8.598;2022-08-11T06:45:03;20.40;48.10
46139;DHT22;32398;49.112;8.598;2022-08-11T06:47:32;20.30;48.10
46139;DHT22;32398;49.112;8.598;2022-08-11T06:49:59;20.30;48.00
46139;DHT22;32398;49.112;8.598;2022-08-11T06:53:00;20.40;48.10
46139;DHT22;32398;49.112;8.598;2022-08-11T06:55:27;20.40;48.00
46139;DHT22;32398;49.112;8.598;2022-08-11T06:58:11;20.40;47.80
46139;DHT22;32398;49.112;8.598;2022-08-11T07:00:56;20.40;47.80
46139;DHT22;32398;49.112;8.598;2022-08-11T07:03:24;20.40;47.50
46139;DHT22;32398;49.112;8.598;2022-08-11T07:05:53;20.40;47.50
46139;DHT22;32398;49.112;8.598;2022-08-11T07:14:28;20.50;47.40
46139;DHT22;32398;49.112;8.598;2022-08-11T07:17:13;20.50;47.50
46139;DHT22;32398;49.112;8.598;2022-08-11T07:19:42;20.50;47.40
46139;DHT22;32398;49.112;8.598;2022-08-11T07:22:27;20.60;47.60
46139;DHT22;32398;49.112;8.598;2022-08-11T07:25:14;20.60;47.70
46139;DHT22;32398;49.112;8.598;2022-08-11T07:28:00;20.60;47.60
46139;DHT22;32398;49.112;8.598;2022-08-11T07:30:46;20.70;47.40
46139;DHT22;32398;49.112;8.598;2022-08-11T07:33:17;20.70;47.30
46139;DHT22;32398;49.112;8.598;2022-08-11T07:35:47;20.70;47.30
46139;DHT22;32398;49.112;8.598;2022-08-11T07:38:15;20.80;47.20
46139;DHT22;32398;49.112;8.598;2022-08-11T07:40:43;20.80;47.10
46139;DHT22;32398;49.112;8.598;2022-08-11T07:43:11;20.80;47.20
46139;DHT22;32398;49.112;8.598;2022-08-11T07:45:40;20.80;47.20
46139;DHT22;32398;49.112;8.598;2022-08-11T07:48:26;20.90;47.20
46139;DHT22;32398;49.112;8.598;2022-08-11T07:51:10;20.90;47.00
46139;DHT22;32398;49.112;8.598;2022-08-11T07:53:56;21.00;47.10
46139;DHT22;32398;49.112;8.598;2022-08-11T07:56:23;21.00;47.10
46139;DHT22;32398;49.112;8.598;2022-08-11T07:58:49;21.00;47.10
46139;DHT22;32398;49.112;8.598;2022-08-11T08:01:34;21.10;47.20
46139;DHT22;32398;49.112;8.598;2022-08-11T08:04:20;21.10;47.20
46139;DHT22;32398;49.112;8.598;2022-08-11T08:07:04;21.20;47.20
46139;DHT22;32398;49.112;8.598;2022-08-11T08:09:48;21.20;47.00
46139;DHT22;32398;49.112;8.598;2022-08-11T08:12:32;21.30;47.10
46139;DHT22;32398;49.112;8.598;2022-08-11T08:15:18;21.30;47.00
46139;DHT22;32398;49.112;8.598;2022-08-11T08:18:03;21.30;46.90
46139;DHT22;32398;49.112;8.598;2022-08-11T08:20:31;21.40;46.80
46139;DHT22;32398;49.112;8.598;2022-08-11T08:23:00;21.40;46.70
46139;DHT22;32398;49.112;8.598;2022-08-11T08:25:27;21.40;46.70
46139;DHT22;32398;49.112;8.598;2022-08-11T08:27:56;21.50;46.60
46139;DHT22;32398;49.112;8.598;2022-08-11T08:30:23;21.50;46.50
46139;DHT22;32398;49.112;8.598;2022-08-11T08:33:08;21.60;46.70
46139;DHT22;32398;49.112;8.598;2022-08-11T08:35:38;21.60;46.80
46139;DHT22;32398;49.112;8.598;2022-08-11T08:38:06;21.70;46.60
46139;DHT22;32398;49.112;8.598;2022-08-11T08:40:33;21.70;46.60
46139;DHT22;32398;49.112;8.598;2022-08-11T08:43:01;21.80;46.50
46139;DHT22;32398;49.112;8.598;2022-08-11T08:45:28;21.80;46.50
46139;DHT22;32398;49.112;8.598;2022-08-11T08:47:59;21.90;46.50
46139;DHT22;32398;49.112;8.598;2022-08-11T08:50:28;21.90;46.50
46139;DHT22;32398;49.112;8.598;2022-08-11T08:53:11;21.90;46.40
46139;DHT22;32398;49.112;8.598;2022-08-11T08:55:38;22.00;46.40
46139;DHT22;32398;49.112;8.598;2022-08-11T08:58:06;22.00;46.40
46139;DHT22;32398;49.112;8.598;2022-08-11T09:00:36;22.10;46.40
46139;DHT22;32398;49.112;8.598;2022-08-11T09:03:04;22.20;46.30
46139;DHT22;32398;49.112;8.598;2022-08-11T09:05:31;22.20;46.30
46139;DHT22;32398;49.112;8.598;2022-08-11T09:07:57;22.30;46.50
46139;DHT22;32398;49.112;8.598;2022-08-11T09:10:25;22.30;46.50
46139;DHT22;32398;49.112;8.598;2022-08-11T09:12:54;22.40;46.00
46139;DHT22;32398;49.112;8.598;2022-08-11T09:15:21;22.40;46.10
46139;DHT22;32398;49.112;8.598;2022-08-11T09:17:49;22.50;45.70
46139;DHT22;32398;49.112;8.598;2022-08-11T09:20:17;22.60;45.50
46139;DHT22;32398;49.112;8.598;2022-08-11T09:22:44;22.60;45.60
46139;DHT22;32398;49.112;8.598;2022-08-11T09:25:31;22.70;45.30
46139;DHT22;32398;49.112;8.598;2022-08-11T09:28:16;22.80;45.90
46139;DHT22;32398;49.112;8.598;2022-08-11T09:30:44;22.80;45.40
46139;DHT22;32398;49.112;8.598;2022-08-11T09:33:12;22.90;45.80
46139;DHT22;32398;49.112;8.598;2022-08-11T09:35:39;23.00;45.60
46139;DHT22;32398;49.112;8.598;2022-08-11T09:38:09;23.00;45.10
46139;DHT22;32398;49.112;8.598;2022-08-11T09:40:56;23.20;44.80
46139;DHT22;32398;49.112;8.598;2022-08-11T09:43:24;23.20;44.80
46139;DHT22;32398;49.112;8.598;2022-08-11T09:46:08;23.20;44.80
46139;DHT22;32398;49.112;8.598;2022-08-11T09:48:36;23.30;43.90
46139;DHT22;32398;49.112;8.598;2022-08-11T09:51:04;23.40;44.30
46139;DHT22;32398;49.112;8.598;2022-08-11T09:53:32;23.50;44.10
46139;DHT22;32398;49.112;8.598;2022-08-11T09:56:01;23.60;44.50
46139;DHT22;32398;49.112;8.598;2022-08-11T09:58:48;23.70;43.50
46139;DHT22;32398;49.112;8.598;2022-08-11T10:01:14;23.70;43.30
46139;DHT22;32398;49.112;8.598;2022-08-11T10:03:52;23.80;43.00
46139;DHT22;32398;49.112;8.598;2022-08-11T10:06:19;23.80;43.00
46139;DHT22;32398;49.112;8.598;2022-08-11T10:09:03;23.90;42.90
46139;DHT22;32398;49.112;8.598;2022-08-11T10:11:32;24.00;43.10
46139;DHT22;32398;49.112;8.598;2022-08-11T10:14:00;24.10;42.60
46139;DHT22;32398;49.112;8.598;2022-08-11T10:16:47;24.20;42.10
46139;DHT22;32398;49.112;8.598;2022-08-11T10:19:15;24.20;41.80
46139;DHT22;32398;49.112;8.598;2022-08-11T10:21:45;24.30;41.60
46139;DHT22;32398;49.112;8.598;2022-08-11T10:24:33;24.40;41.10
46139;DHT22;32398;49.112;8.598;2022-08-11T10:27:19;24.50;41.40
46139;DHT22;32398;49.112;8.598;2022-08-11T10:29:46;24.50;40.70
46139;DHT22;32398;49.112;8.598;2022-08-11T10:32:30;24.60;40.30
46139;DHT22;32398;49.112;8.598;2022-08-11T10:35:15;24.70;40.00
46139;DHT22;32398;49.112;8.598;2022-08-11T10:37:42;24.70;40.20
46139;DHT22;32398;49.112;8.598;2022-08-11T10:40:12;24.90;39.70
46139;DHT22;32398;49.112;8.598;2022-08-11T10:42:41;24.90;39.40
46139;DHT22;32398;49.112;8.598;2022-08-11T10:45:26;25.00;39.70
46139;DHT22;32398;49.112;8.598;2022-08-11T10:48:13;25.10;39.50
46139;DHT22;32398;49.112;8.598;2022-08-11T10:50:43;25.10;39.60
46139;DHT22;32398;49.112;8.598;2022-08-11T10:53:28;25.20;39.20
46139;DHT22;32398;49.112;8.598;2022-08-11T10:56:12;25.30;38.80
46139;DHT22;32398;49.112;8.598;2022-08-11T10:58:57;25.40;38.30
46139;DHT22;32398;49.112;8.598;2022-08-11T11:01:25;25.50;38.10
46139;DHT22;32398;49.112;8.598;2022-08-11T11:03:53;25.60;37.80
46139;DHT22;32398;49.112;8.598;2022-08-11T11:06:22;25.60;37.80
46139;DHT22;32398;49.112;8.598;2022-08-11T11:08:52;25.70;37.50
46139;DHT22;32398;49.112;8.598;2022-08-11T11:11:20;25.80;37.30
46139;DHT22;32398;49.112;8.598;2022-08-11T11:13:49;25.80;37.70
46139;DHT22;32398;49.112;8.598;2022-08-11T11:16:35;25.90;37.00
46139;DHT22;32398;49.112;8.598;2022-08-11T11:19:20;26.00;36.80
46139;DHT22;32398;49.112;8.598;2022-08-11T11:21:50;26.10;37.20
46139;DHT22;32398;49.112;8.598;2022-08-11T11:24:20;26.20;37.30
46139;DHT22;32398;49.112;8.598;2022-08-11T11:26:52;26.20;36.70
46139;DHT22;32398;49.112;8.598;2022-08-11T11:29:43;26.30;36.70
46139;DHT22;32398;49.112;8.598;2022-08-11T11:32:22;26.30;36.30
46139;DHT22;32398;49.112;8.598;2022-08-11T11:37:40;26.50;36.20
46139;DHT22;32398;49.112;8.598;2022-08-11T11:40:08;26.50;35.90
46139;DHT22;32398;49.112;8.598;2022-08-11T11:42:35;26.60;35.70
46139;DHT22;32398;49.112;8.598;2022-08-11T11:45:03;26.60;35.40
46139;DHT22;32398;49.112;8.598;2022-08-11T11:47:31;26.70;35.10
46139;DHT22;32398;49.112;8.598;2022-08-11T11:49:58;26.80;35.20
46139;DHT22;32398;49.112;8.598;2022-08-11T11:52:25;26.80;35.00
46139;DHT22;32398;49.112;8.598;2022-08-11T11:54:53;26.90;35.00
46139;DHT22;32398;49.112;8.598;2022-08-11T11:57:20;27.00;34.50
46139;DHT22;32398;49.112;8.598;2022-08-11T12:00:05;27.00;35.00
46139;DHT22;32398;49.112;8.598;2022-08-11T12:02:53;27.10;34.50
46139;DHT22;32398;49.112;8.598;2022-08-11T12:05:20;27.10;34.30
46139;DHT22;32398;49.112;8.598;2022-08-11T12:07:47;27.30;35.20
46139;DHT22;32398;49.112;8.598;2022-08-11T12:10:31;27.30;34.50
46139;DHT22;32398;49.112;8.598;2022-08-11T12:12:58;27.40;34.50
46139;DHT22;32398;49.112;8.598;2022-08-11T12:15:44;27.40;34.00
46139;DHT22;32398;49.112;8.598;2022-08-11T12:18:12;27.40;33.90
46139;DHT22;32398;49.112;8.598;2022-08-11T12:20:39;27.50;33.50
46139;DHT22;32398;49.112;8.598;2022-08-11T12:23:05;27.60;33.40
46139;DHT22;32398;49.112;8.598;2022-08-11T12:25:50;27.70;33.10
46139;DHT22;32398;49.112;8.598;2022-08-11T12:28:34;27.70;33.00
46139;DHT22;32398;49.112;8.598;2022-08-11T12:31:01;27.80;33.00
46139;DHT22;32398;49.112;8.598;2022-08-11T12:33:30;27.90;33.20
46139;DHT22;32398;49.112;8.598;2022-08-11T12:35:57;27.90;32.90
46139;DHT22;32398;49.112;8.598;2022-08-11T12:38:24;28.00;33.40
46139;DHT22;32398;49.112;8.598;2022-08-11T12:40:51;28.10;32.90
46139;DHT22;32398;49.112;8.598;2022-08-11T12:43:35;28.10;33.50
46139;DHT22;32398;49.112;8.598;2022-08-11T12:46:20;28.10;32.90
46139;DHT22;32398;49.112;8.598;2022-08-11T12:48:57;28.20;32.40
46139;DHT22;32398;49.112;8.598;2022-08-11T12:51:44;28.20;33.10
46139;DHT22;32398;49.112;8.598;2022-08-11T12:54:24;28.30;32.60
46139;DHT22;32398;49.112;8.598;2022-08-11T12:56:53;28.40;32.20
46139;DHT22;32398;49.112;8.598;2022-08-11T12:59:37;28.40;32.20
46139;DHT22;32398;49.112;8.598;2022-08-11T13:02:23;28.50;32.50
46139;DHT22;32398;49.112;8.598;2022-08-11T13:05:10;28.60;33.40
46139;DHT22;32398;49.112;8.598;2022-08-11T13:07:37;28.60;32.10
46139;DHT22;32398;49.112;8.598;2022-08-11T13:10:05;28.70;31.40
46139;DHT22;32398;49.112;8.598;2022-08-11T13:12:33;28.70;30.80
46139;DHT22;32398;49.112;8.598;2022-08-11T13:15:15;28.80;31.90
46139;DHT22;32398;49.112;8.598;2022-08-11T13:17:42;28.80;31.80
46139;DHT22;32398;49.112;8.598;2022-08-11T13:20:11;28.90;31.20
46139;DHT22;32398;49.112;8.598;2022-08-11T13:22:38;29.00;32.10
46139;DHT22;32398;49.112;8.598;2022-08-11T13:25:10;29.00;31.10
46139;DHT22;32398;49.112;8.598;2022-08-11T13:27:37;29.10;31.80
46139;DHT22;32398;49.112;8.598;2022-08-11T13:30:04;29.10;30.90
46139;DHT22;32398;49.112;8.598;2022-08-11T13:32:48;29.20;31.10
46139;DHT22;32398;49.112;8.598;2022-08-11T13:35:16;29.20;31.10
46139;DHT22;32398;49.112;8.598;2022-08-11T13:37:43;29.30;30.80
46139;DHT22;32398;49.112;8.598;2022-08-11T13:40:11;29.30;30.70
46139;DHT22;32398;49.112;8.598;2022-08-11T13:42:38;29.40;31.00
46139;DHT22;32398;49.112;8.598;2022-08-11T13:45:06;29.40;31.80
46139;DHT22;32398;49.112;8.598;2022-08-11T13:47:33;29.50;31.20
46139;DHT22;32398;49.112;8.598;2022-08-11T13:50:00;29.50;30.70
46139;DHT22;32398;49.112;8.598;2022-08-11T13:52:28;29.60;30.80
46139;DHT22;32398;49.112;8.598;2022-08-11T13:54:55;29.70;31.20
46139;DHT22;32398;49.112;8.598;2022-08-11T13:57:22;29.70;29.90
46139;DHT22;32398;49.112;8.598;2022-08-11T13:59:51;29.80;30.20
46139;DHT22;32398;49.112;8.598;2022-08-11T14:02:20;29.80;31.10
46139;DHT22;32398;49.112;8.598;2022-08-11T14:04:49;29.90;30.30
46139;DHT22;32398;49.112;8.598;2022-08-11T14:07:17;29.90;30.00
46139;DHT22;32398;49.112;8.598;2022-08-11T14:09:47;30.00;30.30
46139;DHT22;32398;49.112;8.598;2022-08-11T14:12:20;30.10;30.00
46139;DHT22;32398;49.112;8.598;2022-08-11T14:15:05;30.10;30.80
46139;DHT22;32398;49.112;8.598;2022-08-11T14:17:35;30.20;29.70
46139;DHT22;32398;49.112;8.598;2022-08-11T14:20:04;30.20;29.80
46139;DHT22;32398;49.112;8.598;2022-08-11T14:22:32;30.30;30.00
46139;DHT22;32398;49.112;8.598;2022-08-11T14:24:59;30.40;30.20
46139;DHT22;32398;49.112;8.598;2022-08-11T14:27:27;30.40;29.80
46139;DHT22;32398;49.112;8.598;2022-08-11T14:29:56;30.50;30.80
46139;DHT22;32398;49.112;8.598;2022-08-11T14:32:22;30.60;30.00
46139;DHT22;32398;49.112;8.598;2022-08-11T14:34:50;30.60;30.00
46139;DHT22;32398;49.112;8.598;2022-08-11T14:37:17;30.60;29.80
46139;DHT22;32398;49.112;8.598;2022-08-11T14:39:45;30.70;28.90
46139;DHT22;32398;49.112;8.598;2022-08-11T14:42:14;30.70;28.60
46139;DHT22;32398;49.112;8.598;2022-08-11T14:45:01;30.80;29.10
46139;DHT22;32398;49.112;8.598;2022-08-11T14:47:42;30.90;29.30
46139;DHT22;32398;49.112;8.598;2022-08-11T14:50:10;31.00;29.10
46139;DHT22;32398;49.112;8.598;2022-08-11T14:52:43;31.00;29.40
46139;DHT22;32398;49.112;8.598;2022-08-11T14:55:11;31.10;30.10
46139;DHT22;32398;49.112;8.598;2022-08-11T14:57:56;31.10;29.60
46139;DHT22;32398;49.112;8.598;2022-08-11T15:00:24;31.20;28.90
46139;DHT22;32398;49.112;8.598;2022-08-11T15:02:51;31.20;28.60
46139;DHT22;32398;49.112;8.598;2022-08-11T15:05:38;31.30;29.20
46139;DHT22;32398;49.112;8.598;2022-08-11T15:08:05;31.30;28.90
46139;DHT22;32398;49.112;8.598;2022-08-11T15:10:33;31.40;28.50
46139;DHT22;32398;49.112;8.598;2022-08-11T15:13:02;31.40;29.10
46139;DHT22;32398;49.112;8.598;2022-08-11T15:15:29;31.50;29.20
46139;DHT22;32398;49.112;8.598;2022-08-11T15:18:14;31.50;29.20
46139;DHT22;32398;49.112;8.598;2022-08-11T15:20:42;31.50;28.90
46139;DHT22;32398;49.112;8.598;2022-08-11T15:23:26;31.60;28.90
46139;DHT22;32398;49.112;8.598;2022-08-11T15:26:12;31.60;29.00
46139;DHT22;32398;49.112;8.598;2022-08-11T15:28:42;31.60;28.70
46139;DHT22;32398;49.112;8.598;2022-08-11T15:31:27;31.70;28.70
46139;DHT22;32398;49.112;8.598;2022-08-11T15:34:13;31.70;28.40
46139;DHT22;32398;49.112;8.598;2022-08-11T15:36:59;31.70;28.60
46139;DHT22;32398;49.112;8.598;2022-08-11T15:39:46;31.70;27.70
46139;DHT22;32398;49.112;8.598;2022-08-11T15:42:28;31.80;28.20
46139;DHT22;32398;49.112;8.598;2022-08-11T15:45:14;31.80;28.40
46139;DHT22;32398;49.112;8.598;2022-08-11T15:48:01;31.80;29.40
46139;DHT22;32398;49.112;8.598;2022-08-11T15:50:29;31.80;28.00
46139;DHT22;32398;49.112;8.598;2022-08-11T15:52:59;31.80;28.90
46139;DHT22;32398;49.112;8.598;2022-08-11T15:55:28;31.70;28.10
46139;DHT22;32398;49.112;8.598;2022-08-11T15:57:57;31.70;27.90
46139;DHT22;32398;49.112;8.598;2022-08-11T16:00:43;31.70;28.50
46139;DHT22;32398;49.112;8.598;2022-08-11T16:03:28;31.70;28.80
46139;DHT22;32398;49.112;8.598;2022-08-11T16:06:14;31.70;28.90
46139;DHT22;32398;49.112;8.598;2022-08-11T16:08:41;31.70;29.30
46139;DHT22;32398;49.112;8.598;2022-08-11T16:11:09;31.70;28.70
46139;DHT22;32398;49.112;8.598;2022-08-11T16:13:36;31.60;28.50
46139;DHT22;32398;49.112;8.598;2022-08-11T16:16:22;31.60;28.50
46139;DHT22;32398;49.112;8.598;2022-08-11T16:18:49;31.60;28.00
46139;DHT22;32398;49.112;8.598;2022-08-11T16:21:18;31.60;28.80
46139;DHT22;32398;49.112;8.598;2022-08-11T16:23:48;31.60;29.90
46139;DHT22;32398;49.112;8.598;2022-08-11T16:26:16;31.60;29.30
46139;DHT22;32398;49.112;8.598;2022-08-11T16:28:44;31.60;28.60
46139;DHT22;32398;49.112;8.598;2022-08-11T16:31:11;31.50;29.20
46139;DHT22;32398;49.112;8.598;2022-08-11T16:33:40;31.50;29.00
46139;DHT22;32398;49.112;8.598;2022-08-11T16:36:08;31.50;29.30
46139;DHT22;32398;49.112;8.598;2022-08-11T16:38:53;31.50;29.40
46139;DHT22;32398;49.112;8.598;2022-08-11T16:41:20;31.50;29.80
46139;DHT22;32398;49.112;8.598;2022-08-11T16:44:02;31.50;28.70
46139;DHT22;32398;49.112;8.598;2022-08-11T16:46:46;31.50;28.80
46139;DHT22;32398;49.112;8.598;2022-08-11T16:49:28;31.50;29.20
46139;DHT22;32398;49.112;8.598;2022-08-11T16:51:55;31.40;29.30
46139;DHT22;32398;49.112;8.598;2022-08-11T16:54:22;31.40;29.30